sensor_id;sensor_type;location;lat;lon;timestamp;P1;durP1;ratioP1;P2;durP2;ratioP2
70970;SDS011;58632;51.718;19.446;2022-12-18T00:03:51;44.00;;;18.50;;
70970;SDS011;58632;51.718;19.446;2022-12-18T00:06:18;38.60;;;16.10;;
70970;SDS011;58632;51.718;19.446;2022-12-18T00:08:45;46.20;;;19.00;;
70970;SDS011;58632;51.718;19.446;2022-12-18T00:11:12;47.10;;;21.90;;
70970;SDS011;58632;51.718;19.446;2022-12-18T00:13:40;54.20;;;25.40;;
70970;SDS011;58632;51.718;19.446;2022-12-18T00:16:07;50.60;;;20.60;;
70970;SDS011;58632;51.718;19.446;2022-12-18T00:18:35;59.40;;;23.50;;
70970;SDS011;58632;51.718;19.446;2022-12-18T00:21:03;49.10;;;21.50;;
70970;SDS011;58632;51.718;19.446;2022-12-18T00:23:31;48.20;;;22.00;;
70970;SDS011;58632;51.718;19.446;2022-12-18T00:26:04;59.60;;;24.70;;
70970;SDS011;58632;51.718;19.446;2022-12-18T00:28:33;51.50;;;22.70;;
70970;SDS011;58632;51.718;19.446;2022-12-18T00:31:02;40.70;;;17.00;;
70970;SDS011;58632;51.718;19.446;2022-12-18T00:33:32;44.10;;;20.00;;
70970;SDS011;58632;51.718;19.446;2022-12-18T00:36:02;41.00;;;17.90;;
70970;SDS011;58632;51.718;19.446;2022-12-18T00:38:33;36.10;;;16.20;;
70970;SDS011;58632;51.718;19.446;2022-12-18T00:40:59;49.40;;;21.70;;
70970;SDS011;58632;51.718;19.446;2022-12-18T00:43:25;52.30;;;23.40;;
70970;SDS011;58632;51.718;19.446;2022-12-18T00:45:51;50.60;;;22.90;;
70970;SDS011;58632;51.718;19.446;2022-12-18T00:48:16;39.40;;;19.80;;
70970;SDS011;58632;51.718;19.446;2022-12-18T00:50:42;32.60;;;15.70;;
70970;SDS011;58632;51.718;19.446;2022-12-18T00:53:08;46.20;;;21.60;;
70970;SDS011;58632;51.718;19.446;2022-12-18T00:55:34;53.10;;;23.30;;
70970;SDS011;58632;51.718;19.446;2022-12-18T00:58:00;50.00;;;21.80;;
70970;SDS011;58632;51.718;19.446;2022-12-18T01:00:26;46.40;;;21.60;;
70970;SDS011;58632;51.718;19.446;2022-12-18T01:02:52;47.10;;;22.10;;
70970;SDS011;58632;51.718;19.446;2022-12-18T01:05:18;47.10;;;21.20;;
70970;SDS011;58632;51.718;19.446;2022-12-18T01:07:44;35.10;;;16.30;;
70970;SDS011;58632;51.718;19.446;2022-12-18T01:10:10;25.90;;;12.20;;
70970;SDS011;58632;51.718;19.446;2022-12-18T01:12:38;56.10;;;22.50;;
70970;SDS011;58632;51.718;19.446;2022-12-18T01:15:04;54.20;;;23.00;;
70970;SDS011;58632;51.718;19.446;2022-12-18T01:17:31;44.70;;;19.60;;
70970;SDS011;58632;51.718;19.446;2022-12-18T01:19:57;49.30;;;21.00;;
70970;SDS011;58632;51.718;19.446;2022-12-18T01:22:23;42.00;;;17.70;;
70970;SDS011;58632;51.718;19.446;2022-12-18T01:24:49;40.00;;;17.60;;
70970;SDS011;58632;51.718;19.446;2022-12-18T01:27:15;38.30;;;18.60;;
70970;SDS011;58632;51.718;19.446;2022-12-18T01:29:41;41.80;;;19.60;;
70970;SDS011;58632;51.718;19.446;2022-12-18T01:32:07;47.10;;;22.30;;
70970;SDS011;58632;51.718;19.446;2022-12-18T01:34:37;39.70;;;17.70;;
70970;SDS011;58632;51.718;19.446;2022-12-18T01:37:03;37.00;;;15.50;;
70970;SDS011;58632;51.718;19.446;2022-12-18T01:39:29;39.50;;;17.10;;
70970;SDS011;58632;51.718;19.446;2022-12-18T01:41:57;45.40;;;20.00;;
70970;SDS011;58632;51.718;19.446;2022-12-18T01:45:28;50.20;;;21.60;;
70970;SDS011;58632;51.718;19.446;2022-12-18T01:49:59;46.90;;;20.80;;
70970;SDS011;58632;51.718;19.446;2022-12-18T01:52:41;47.60;;;20.30;;
70970;SDS011;58632;51.718;19.446;2022-12-18T01:55:09;41.60;;;16.60;;
70970;SDS011;58632;51.718;19.446;2022-12-18T01:57:36;44.60;;;18.70;;
70970;SDS011;58632;51.718;19.446;2022-12-18T02:00:06;96.30;;;32.30;;
70970;SDS011;58632;51.718;19.446;2022-12-18T02:02:34;105.70;;;38.30;;
70970;SDS011;58632;51.718;19.446;2022-12-18T02:05:00;85.80;;;30.50;;
70970;SDS011;58632;51.718;19.446;2022-12-18T02:07:36;50.80;;;22.10;;
70970;SDS011;58632;51.718;19.446;2022-12-18T02:10:19;41.80;;;15.90;;
70970;SDS011;58632;51.718;19.446;2022-12-18T02:15:39;48.20;;;21.40;;
70970;SDS011;58632;51.718;19.446;2022-12-18T02:23:56;43.80;;;21.50;;
70970;SDS011;58632;51.718;19.446;2022-12-18T02:26:49;35.50;;;15.00;;
70970;SDS011;58632;51.718;19.446;2022-12-18T02:29:21;52.50;;;21.80;;
70970;SDS011;58632;51.718;19.446;2022-12-18T02:31:53;48.00;;;21.40;;
70970;SDS011;58632;51.718;19.446;2022-12-18T02:34:23;47.10;;;20.60;;
70970;SDS011;58632;51.718;19.446;2022-12-18T02:36:53;43.30;;;17.30;;
70970;SDS011;58632;51.718;19.446;2022-12-18T02:39:21;38.80;;;19.10;;
70970;SDS011;58632;51.718;19.446;2022-12-18T02:41:50;39.00;;;16.60;;
70970;SDS011;58632;51.718;19.446;2022-12-18T02:44:16;40.70;;;19.60;;
70970;SDS011;58632;51.718;19.446;2022-12-18T02:46:43;40.90;;;19.50;;
70970;SDS011;58632;51.718;19.446;2022-12-18T02:51:56;47.70;;;22.40;;
70970;SDS011;58632;51.718;19.446;2022-12-18T02:57:48;40.80;;;19.40;;
70970;SDS011;58632;51.718;19.446;2022-12-18T03:00:12;46.00;;;19.60;;
70970;SDS011;58632;51.718;19.446;2022-12-18T03:02:46;50.90;;;22.70;;
70970;SDS011;58632;51.718;19.446;2022-12-18T03:05:14;46.40;;;21.30;;
70970;SDS011;58632;51.718;19.446;2022-12-18T03:07:49;41.10;;;19.20;;
70970;SDS011;58632;51.718;19.446;2022-12-18T03:10:22;53.80;;;22.00;;
70970;SDS011;58632;51.718;19.446;2022-12-18T03:12:57;44.50;;;19.80;;
70970;SDS011;58632;51.718;19.446;2022-12-18T03:15:40;28.30;;;13.20;;
70970;SDS011;58632;51.718;19.446;2022-12-18T03:18:12;41.60;;;19.50;;
70970;SDS011;58632;51.718;19.446;2022-12-18T03:20:45;46.10;;;20.50;;
70970;SDS011;58632;51.718;19.446;2022-12-18T03:23:17;40.90;;;19.50;;
70970;SDS011;58632;51.718;19.446;2022-12-18T03:25:47;42.50;;;19.10;;
70970;SDS011;58632;51.718;19.446;2022-12-18T03:28:16;33.70;;;15.60;;
70970;SDS011;58632;51.718;19.446;2022-12-18T03:30:47;43.10;;;19.20;;
70970;SDS011;58632;51.718;19.446;2022-12-18T03:33:30;41.90;;;20.20;;
70970;SDS011;58632;51.718;19.446;2022-12-18T03:36:02;39.50;;;18.20;;
70970;SDS011;58632;51.718;19.446;2022-12-18T03:38:29;42.90;;;20.60;;
70970;SDS011;58632;51.718;19.446;2022-12-18T03:43:50;47.20;;;21.50;;
70970;SDS011;58632;51.718;19.446;2022-12-18T03:49:25;40.60;;;20.60;;
70970;SDS011;58632;51.718;19.446;2022-12-18T03:52:30;48.50;;;23.50;;
70970;SDS011;58632;51.718;19.446;2022-12-18T03:55:05;45.70;;;20.50;;
70970;SDS011;58632;51.718;19.446;2022-12-18T03:57:32;52.60;;;23.40;;
70970;SDS011;58632;51.718;19.446;2022-12-18T04:00:00;53.90;;;23.00;;
70970;SDS011;58632;51.718;19.446;2022-12-18T04:02:47;44.00;;;21.90;;
70970;SDS011;58632;51.718;19.446;2022-12-18T04:05:16;53.60;;;19.70;;
70970;SDS011;58632;51.718;19.446;2022-12-18T04:07:45;42.00;;;15.70;;
70970;SDS011;58632;51.718;19.446;2022-12-18T04:10:13;49.00;;;20.60;;
70970;SDS011;58632;51.718;19.446;2022-12-18T04:12:41;44.80;;;19.80;;
70970;SDS011;58632;51.718;19.446;2022-12-18T04:15:07;48.30;;;21.00;;
70970;SDS011;58632;51.718;19.446;2022-12-18T04:17:34;42.70;;;19.80;;
70970;SDS011;58632;51.718;19.446;2022-12-18T04:20:00;48.00;;;21.90;;
70970;SDS011;58632;51.718;19.446;2022-12-18T04:22:26;47.40;;;19.60;;
70970;SDS011;58632;51.718;19.446;2022-12-18T04:24:52;41.10;;;19.20;;
70970;SDS011;58632;51.718;19.446;2022-12-18T04:27:18;45.50;;;20.80;;
70970;SDS011;58632;51.718;19.446;2022-12-18T04:29:44;49.80;;;22.20;;
70970;SDS011;58632;51.718;19.446;2022-12-18T04:32:10;53.50;;;23.50;;
70970;SDS011;58632;51.718;19.446;2022-12-18T04:34:36;47.00;;;23.00;;
70970;SDS011;58632;51.718;19.446;2022-12-18T04:37:02;46.30;;;21.80;;
70970;SDS011;58632;51.718;19.446;2022-12-18T04:39:27;44.90;;;22.00;;
70970;SDS011;58632;51.718;19.446;2022-12-18T04:41:53;53.80;;;22.90;;
70970;SDS011;58632;51.718;19.446;2022-12-18T04:44:19;46.60;;;22.60;;
70970;SDS011;58632;51.718;19.446;2022-12-18T04:46:45;55.10;;;24.70;;
70970;SDS011;58632;51.718;19.446;2022-12-18T04:49:11;50.00;;;22.30;;
70970;SDS011;58632;51.718;19.446;2022-12-18T04:51:37;52.30;;;24.10;;
70970;SDS011;58632;51.718;19.446;2022-12-18T04:54:03;63.30;;;26.50;;
70970;SDS011;58632;51.718;19.446;2022-12-18T04:56:30;55.60;;;27.00;;
70970;SDS011;58632;51.718;19.446;2022-12-18T05:01:22;53.10;;;23.60;;
70970;SDS011;58632;51.718;19.446;2022-12-18T05:03:48;43.20;;;19.70;;
70970;SDS011;58632;51.718;19.446;2022-12-18T05:06:13;49.70;;;22.60;;
70970;SDS011;58632;51.718;19.446;2022-12-18T05:08:39;52.10;;;24.90;;
70970;SDS011;58632;51.718;19.446;2022-12-18T05:11:07;50.80;;;22.40;;
70970;SDS011;58632;51.718;19.446;2022-12-18T05:13:35;50.80;;;23.30;;
70970;SDS011;58632;51.718;19.446;2022-12-18T05:16:01;45.70;;;22.80;;
70970;SDS011;58632;51.718;19.446;2022-12-18T05:18:28;59.50;;;25.60;;
70970;SDS011;58632;51.718;19.446;2022-12-18T05:20:54;63.50;;;28.20;;
70970;SDS011;58632;51.718;19.446;2022-12-18T05:23:21;53.80;;;23.50;;
70970;SDS011;58632;51.718;19.446;2022-12-18T05:25:51;54.60;;;24.10;;
70970;SDS011;58632;51.718;19.446;2022-12-18T05:28:19;51.40;;;22.00;;
70970;SDS011;58632;51.718;19.446;2022-12-18T05:30:51;54.90;;;25.00;;
70970;SDS011;58632;51.718;19.446;2022-12-18T05:33:19;51.60;;;22.80;;
70970;SDS011;58632;51.718;19.446;2022-12-18T05:35:50;53.40;;;24.30;;
70970;SDS011;58632;51.718;19.446;2022-12-18T05:38:17;54.10;;;24.80;;
70970;SDS011;58632;51.718;19.446;2022-12-18T05:40:43;57.60;;;26.20;;
70970;SDS011;58632;51.718;19.446;2022-12-18T05:43:10;55.80;;;23.30;;
70970;SDS011;58632;51.718;19.446;2022-12-18T05:45:39;57.70;;;24.30;;
70970;SDS011;58632;51.718;19.446;2022-12-18T05:48:05;56.60;;;26.80;;
70970;SDS011;58632;51.718;19.446;2022-12-18T05:50:35;52.60;;;23.50;;
70970;SDS011;58632;51.718;19.446;2022-12-18T05:53:02;56.70;;;25.00;;
70970;SDS011;58632;51.718;19.446;2022-12-18T05:55:28;54.80;;;25.70;;
70970;SDS011;58632;51.718;19.446;2022-12-18T05:57:54;50.20;;;22.20;;
70970;SDS011;58632;51.718;19.446;2022-12-18T06:00:20;63.30;;;26.60;;
70970;SDS011;58632;51.718;19.446;2022-12-18T06:02:46;72.10;;;28.90;;
70970;SDS011;58632;51.718;19.446;2022-12-18T06:05:13;48.70;;;23.10;;
70970;SDS011;58632;51.718;19.446;2022-12-18T06:07:39;44.60;;;18.90;;
70970;SDS011;58632;51.718;19.446;2022-12-18T06:10:04;60.20;;;27.40;;
70970;SDS011;58632;51.718;19.446;2022-12-18T06:12:31;58.50;;;26.80;;
70970;SDS011;58632;51.718;19.446;2022-12-18T06:14:58;54.30;;;24.80;;
70970;SDS011;58632;51.718;19.446;2022-12-18T06:17:28;57.50;;;23.70;;
70970;SDS011;58632;51.718;19.446;2022-12-18T06:19:57;55.10;;;25.60;;
70970;SDS011;58632;51.718;19.446;2022-12-18T06:22:23;60.00;;;26.60;;
70970;SDS011;58632;51.718;19.446;2022-12-18T06:24:48;54.80;;;25.30;;
70970;SDS011;58632;51.718;19.446;2022-12-18T06:27:14;61.00;;;24.90;;
70970;SDS011;58632;51.718;19.446;2022-12-18T06:29:40;71.00;;;29.30;;
70970;SDS011;58632;51.718;19.446;2022-12-18T06:32:06;63.00;;;26.90;;
70970;SDS011;58632;51.718;19.446;2022-12-18T06:34:32;57.00;;;26.20;;
70970;SDS011;58632;51.718;19.446;2022-12-18T06:36:58;55.20;;;25.90;;
70970;SDS011;58632;51.718;19.446;2022-12-18T06:39:24;63.70;;;27.50;;
70970;SDS011;58632;51.718;19.446;2022-12-18T06:41:52;53.50;;;24.50;;
70970;SDS011;58632;51.718;19.446;2022-12-18T06:44:18;58.90;;;27.90;;
70970;SDS011;58632;51.718;19.446;2022-12-18T06:46:44;54.10;;;24.70;;
70970;SDS011;58632;51.718;19.446;2022-12-18T06:49:10;59.00;;;29.90;;
70970;SDS011;58632;51.718;19.446;2022-12-18T06:51:36;53.90;;;23.60;;
70970;SDS011;58632;51.718;19.446;2022-12-18T06:54:02;68.90;;;26.40;;
70970;SDS011;58632;51.718;19.446;2022-12-18T06:56:28;70.00;;;30.50;;
70970;SDS011;58632;51.718;19.446;2022-12-18T06:58:54;60.50;;;25.90;;
70970;SDS011;58632;51.718;19.446;2022-12-18T07:01:20;79.30;;;35.40;;
70970;SDS011;58632;51.718;19.446;2022-12-18T07:03:46;80.80;;;31.30;;
70970;SDS011;58632;51.718;19.446;2022-12-18T07:06:17;47.00;;;20.60;;
70970;SDS011;58632;51.718;19.446;2022-12-18T07:08:44;70.70;;;27.50;;
70970;SDS011;58632;51.718;19.446;2022-12-18T07:11:10;69.70;;;29.10;;
70970;SDS011;58632;51.718;19.446;2022-12-18T07:13:37;64.80;;;28.20;;
70970;SDS011;58632;51.718;19.446;2022-12-18T07:16:04;63.70;;;24.90;;
70970;SDS011;58632;51.718;19.446;2022-12-18T07:18:33;67.10;;;27.80;;
70970;SDS011;58632;51.718;19.446;2022-12-18T07:21:02;58.40;;;26.40;;
70970;SDS011;58632;51.718;19.446;2022-12-18T07:23:28;68.60;;;28.80;;
70970;SDS011;58632;51.718;19.446;2022-12-18T07:25:55;58.60;;;25.60;;
70970;SDS011;58632;51.718;19.446;2022-12-18T07:28:21;49.90;;;23.70;;
70970;SDS011;58632;51.718;19.446;2022-12-18T07:30:46;55.60;;;25.60;;
70970;SDS011;58632;51.718;19.446;2022-12-18T07:33:12;61.50;;;25.10;;
70970;SDS011;58632;51.718;19.446;2022-12-18T07:35:38;55.40;;;23.70;;
70970;SDS011;58632;51.718;19.446;2022-12-18T07:38:04;57.50;;;26.30;;
70970;SDS011;58632;51.718;19.446;2022-12-18T07:40:30;53.40;;;22.40;;
70970;SDS011;58632;51.718;19.446;2022-12-18T07:42:55;57.70;;;24.70;;
70970;SDS011;58632;51.718;19.446;2022-12-18T07:45:21;59.20;;;25.10;;
70970;SDS011;58632;51.718;19.446;2022-12-18T07:47:47;58.30;;;24.40;;
70970;SDS011;58632;51.718;19.446;2022-12-18T07:50:13;58.80;;;22.70;;
70970;SDS011;58632;51.718;19.446;2022-12-18T07:52:39;49.80;;;20.80;;
70970;SDS011;58632;51.718;19.446;2022-12-18T07:55:05;62.80;;;24.60;;
70970;SDS011;58632;51.718;19.446;2022-12-18T07:57:31;48.00;;;20.80;;
70970;SDS011;58632;51.718;19.446;2022-12-18T07:59:57;57.20;;;24.70;;
70970;SDS011;58632;51.718;19.446;2022-12-18T08:02:23;57.70;;;27.30;;
70970;SDS011;58632;51.718;19.446;2022-12-18T08:04:49;60.00;;;26.20;;
70970;SDS011;58632;51.718;19.446;2022-12-18T08:07:14;52.90;;;24.60;;
70970;SDS011;58632;51.718;19.446;2022-12-18T08:09:40;60.90;;;27.10;;
70970;SDS011;58632;51.718;19.446;2022-12-18T08:12:06;58.90;;;26.30;;
70970;SDS011;58632;51.718;19.446;2022-12-18T08:14:32;73.30;;;30.20;;
70970;SDS011;58632;51.718;19.446;2022-12-18T08:16:57;70.50;;;32.30;;
70970;SDS011;58632;51.718;19.446;2022-12-18T08:19:23;68.50;;;27.80;;
70970;SDS011;58632;51.718;19.446;2022-12-18T08:21:49;78.00;;;30.50;;
70970;SDS011;58632;51.718;19.446;2022-12-18T08:24:15;60.70;;;26.10;;
70970;SDS011;58632;51.718;19.446;2022-12-18T08:26:41;61.20;;;25.00;;
70970;SDS011;58632;51.718;19.446;2022-12-18T08:29:08;65.10;;;29.60;;
70970;SDS011;58632;51.718;19.446;2022-12-18T08:31:33;57.70;;;23.70;;
70970;SDS011;58632;51.718;19.446;2022-12-18T08:33:59;69.70;;;26.50;;
70970;SDS011;58632;51.718;19.446;2022-12-18T08:36:25;76.70;;;30.50;;
70970;SDS011;58632;51.718;19.446;2022-12-18T08:38:51;70.70;;;30.20;;
70970;SDS011;58632;51.718;19.446;2022-12-18T08:41:17;72.90;;;31.80;;
70970;SDS011;58632;51.718;19.446;2022-12-18T08:43:44;76.90;;;33.90;;
70970;SDS011;58632;51.718;19.446;2022-12-18T08:46:31;76.60;;;29.60;;
70970;SDS011;58632;51.718;19.446;2022-12-18T08:48:59;95.00;;;37.00;;
70970;SDS011;58632;51.718;19.446;2022-12-18T08:51:25;70.40;;;27.60;;
70970;SDS011;58632;51.718;19.446;2022-12-18T08:53:51;95.90;;;38.80;;
70970;SDS011;58632;51.718;19.446;2022-12-18T08:56:17;78.00;;;33.40;;
70970;SDS011;58632;51.718;19.446;2022-12-18T08:58:43;66.90;;;29.20;;
70970;SDS011;58632;51.718;19.446;2022-12-18T09:01:09;84.00;;;36.10;;
70970;SDS011;58632;51.718;19.446;2022-12-18T09:03:37;74.10;;;31.60;;
70970;SDS011;58632;51.718;19.446;2022-12-18T09:06:03;69.50;;;28.70;;
70970;SDS011;58632;51.718;19.446;2022-12-18T09:08:29;71.50;;;31.70;;
70970;SDS011;58632;51.718;19.446;2022-12-18T09:10:55;54.10;;;23.50;;
70970;SDS011;58632;51.718;19.446;2022-12-18T09:13:21;57.60;;;24.50;;
70970;SDS011;58632;51.718;19.446;2022-12-18T09:15:48;62.90;;;26.90;;
70970;SDS011;58632;51.718;19.446;2022-12-18T09:18:16;55.40;;;24.90;;
70970;SDS011;58632;51.718;19.446;2022-12-18T09:20:44;61.80;;;28.60;;
70970;SDS011;58632;51.718;19.446;2022-12-18T09:23:10;55.60;;;25.70;;
70970;SDS011;58632;51.718;19.446;2022-12-18T09:25:37;59.40;;;25.30;;
70970;SDS011;58632;51.718;19.446;2022-12-18T09:28:13;59.40;;;26.40;;
70970;SDS011;58632;51.718;19.446;2022-12-18T09:30:41;47.00;;;20.80;;
70970;SDS011;58632;51.718;19.446;2022-12-18T09:33:09;60.00;;;24.50;;
70970;SDS011;58632;51.718;19.446;2022-12-18T09:35:38;56.50;;;24.80;;
70970;SDS011;58632;51.718;19.446;2022-12-18T09:38:05;60.30;;;25.60;;
70970;SDS011;58632;51.718;19.446;2022-12-18T09:40:35;59.90;;;26.80;;
70970;SDS011;58632;51.718;19.446;2022-12-18T09:43:04;57.40;;;26.40;;
70970;SDS011;58632;51.718;19.446;2022-12-18T09:45:37;72.80;;;35.50;;
70970;SDS011;58632;51.718;19.446;2022-12-18T09:48:10;54.60;;;25.30;;
70970;SDS011;58632;51.718;19.446;2022-12-18T09:50:57;53.10;;;24.70;;
70970;SDS011;58632;51.718;19.446;2022-12-18T09:53:28;50.20;;;22.60;;
70970;SDS011;58632;51.718;19.446;2022-12-18T09:55:58;50.80;;;23.80;;
70970;SDS011;58632;51.718;19.446;2022-12-18T09:58:28;59.90;;;26.60;;
70970;SDS011;58632;51.718;19.446;2022-12-18T10:01:00;53.30;;;23.80;;
70970;SDS011;58632;51.718;19.446;2022-12-18T10:03:26;56.50;;;27.30;;
70970;SDS011;58632;51.718;19.446;2022-12-18T10:19:23;57.40;;;24.50;;
70970;SDS011;58632;51.718;19.446;2022-12-18T10:22:11;44.20;;;21.00;;
70970;SDS011;58632;51.718;19.446;2022-12-18T10:25:06;52.30;;;23.80;;
70970;SDS011;58632;51.718;19.446;2022-12-18T10:27:42;55.10;;;23.80;;
70970;SDS011;58632;51.718;19.446;2022-12-18T10:30:18;45.50;;;19.70;;
70970;SDS011;58632;51.718;19.446;2022-12-18T10:32:45;47.60;;;22.30;;
70970;SDS011;58632;51.718;19.446;2022-12-18T10:35:15;51.90;;;24.70;;
70970;SDS011;58632;51.718;19.446;2022-12-18T10:40:29;64.30;;;27.80;;
70970;SDS011;58632;51.718;19.446;2022-12-18T10:43:09;54.40;;;26.90;;
70970;SDS011;58632;51.718;19.446;2022-12-18T10:45:37;51.80;;;25.50;;
70970;SDS011;58632;51.718;19.446;2022-12-18T10:48:03;53.80;;;25.20;;
70970;SDS011;58632;51.718;19.446;2022-12-18T10:50:31;54.60;;;23.80;;
70970;SDS011;58632;51.718;19.446;2022-12-18T10:53:00;51.50;;;22.00;;
70970;SDS011;58632;51.718;19.446;2022-12-18T10:55:35;49.80;;;23.00;;
70970;SDS011;58632;51.718;19.446;2022-12-18T10:58:22;49.20;;;22.90;;
70970;SDS011;58632;51.718;19.446;2022-12-18T11:06:02;62.40;;;27.50;;
70970;SDS011;58632;51.718;19.446;2022-12-18T11:08:31;66.90;;;28.90;;
70970;SDS011;58632;51.718;19.446;2022-12-18T11:10:57;61.80;;;28.10;;
70970;SDS011;58632;51.718;19.446;2022-12-18T11:13:24;55.40;;;23.00;;
70970;SDS011;58632;51.718;19.446;2022-12-18T11:15:53;54.80;;;24.60;;
70970;SDS011;58632;51.718;19.446;2022-12-18T11:21:10;63.50;;;29.80;;
70970;SDS011;58632;51.718;19.446;2022-12-18T11:23:44;65.50;;;31.40;;
70970;SDS011;58632;51.718;19.446;2022-12-18T11:26:16;66.80;;;28.50;;
70970;SDS011;58632;51.718;19.446;2022-12-18T11:28:49;69.50;;;31.60;;
70970;SDS011;58632;51.718;19.446;2022-12-18T11:31:22;60.90;;;28.50;;
70970;SDS011;58632;51.718;19.446;2022-12-18T11:36:34;61.90;;;27.00;;
70970;SDS011;58632;51.718;19.446;2022-12-18T11:41:52;65.00;;;30.50;;
70970;SDS011;58632;51.718;19.446;2022-12-18T11:49:56;74.30;;;33.20;;
70970;SDS011;58632;51.718;19.446;2022-12-18T11:52:27;68.00;;;31.20;;
70970;SDS011;58632;51.718;19.446;2022-12-18T11:55:09;60.60;;;28.50;;
70970;SDS011;58632;51.718;19.446;2022-12-18T11:57:55;50.40;;;23.70;;
70970;SDS011;58632;51.718;19.446;2022-12-18T12:00:34;50.30;;;21.60;;
70970;SDS011;58632;51.718;19.446;2022-12-18T12:03:23;65.90;;;29.50;;
70970;SDS011;58632;51.718;19.446;2022-12-18T12:16:55;68.40;;;31.10;;
70970;SDS011;58632;51.718;19.446;2022-12-18T12:22:37;55.90;;;26.10;;
70970;SDS011;58632;51.718;19.446;2022-12-18T12:25:15;63.40;;;28.10;;
70970;SDS011;58632;51.718;19.446;2022-12-18T12:30:45;62.90;;;30.20;;
70970;SDS011;58632;51.718;19.446;2022-12-18T12:41:33;56.90;;;27.20;;
70970;SDS011;58632;51.718;19.446;2022-12-18T12:44:24;64.20;;;28.30;;
70970;SDS011;58632;51.718;19.446;2022-12-18T12:46:55;59.50;;;27.80;;
70970;SDS011;58632;51.718;19.446;2022-12-18T12:49:26;58.10;;;26.40;;
70970;SDS011;58632;51.718;19.446;2022-12-18T12:52:04;54.30;;;24.20;;
70970;SDS011;58632;51.718;19.446;2022-12-18T12:54:36;58.00;;;25.10;;
70970;SDS011;58632;51.718;19.446;2022-12-18T12:59:41;49.40;;;23.10;;
70970;SDS011;58632;51.718;19.446;2022-12-18T13:02:29;46.40;;;20.40;;
70970;SDS011;58632;51.718;19.446;2022-12-18T13:08:10;45.60;;;21.80;;
70970;SDS011;58632;51.718;19.446;2022-12-18T13:10:48;39.90;;;17.60;;
70970;SDS011;58632;51.718;19.446;2022-12-18T13:13:15;42.20;;;19.00;;
70970;SDS011;58632;51.718;19.446;2022-12-18T13:15:45;51.10;;;22.40;;
70970;SDS011;58632;51.718;19.446;2022-12-18T13:18:14;43.40;;;19.00;;
70970;SDS011;58632;51.718;19.446;2022-12-18T13:25:52;45.10;;;21.60;;
70970;SDS011;58632;51.718;19.446;2022-12-18T13:31:11;52.90;;;22.60;;
70970;SDS011;58632;51.718;19.446;2022-12-18T13:36:37;54.20;;;25.30;;
70970;SDS011;58632;51.718;19.446;2022-12-18T13:39:10;48.80;;;22.60;;
70970;SDS011;58632;51.718;19.446;2022-12-18T13:41:40;55.10;;;25.40;;
70970;SDS011;58632;51.718;19.446;2022-12-18T13:44:10;52.10;;;24.60;;
70970;SDS011;58632;51.718;19.446;2022-12-18T13:46:50;52.10;;;24.20;;
70970;SDS011;58632;51.718;19.446;2022-12-18T13:54:57;47.60;;;20.80;;
70970;SDS011;58632;51.718;19.446;2022-12-18T13:57:36;49.10;;;21.40;;
70970;SDS011;58632;51.718;19.446;2022-12-18T14:03:01;37.70;;;16.70;;
70970;SDS011;58632;51.718;19.446;2022-12-18T14:05:32;46.90;;;21.70;;
70970;SDS011;58632;51.718;19.446;2022-12-18T14:08:06;48.80;;;22.50;;
70970;SDS011;58632;51.718;19.446;2022-12-18T14:10:35;53.30;;;22.10;;
70970;SDS011;58632;51.718;19.446;2022-12-18T14:13:05;29.80;;;14.30;;
70970;SDS011;58632;51.718;19.446;2022-12-18T14:15:34;44.40;;;19.80;;
70970;SDS011;58632;51.718;19.446;2022-12-18T14:20:43;39.10;;;18.10;;
70970;SDS011;58632;51.718;19.446;2022-12-18T14:25:55;37.90;;;16.40;;
70970;SDS011;58632;51.718;19.446;2022-12-18T14:28:21;50.30;;;22.60;;
70970;SDS011;58632;51.718;19.446;2022-12-18T14:30:47;56.80;;;26.10;;
70970;SDS011;58632;51.718;19.446;2022-12-18T14:33:17;44.30;;;19.10;;
70970;SDS011;58632;51.718;19.446;2022-12-18T14:38:23;36.20;;;15.60;;
70970;SDS011;58632;51.718;19.446;2022-12-18T14:40:55;36.10;;;16.20;;
70970;SDS011;58632;51.718;19.446;2022-12-18T14:43:31;41.10;;;18.50;;
70970;SDS011;58632;51.718;19.446;2022-12-18T14:45:58;47.10;;;17.90;;
70970;SDS011;58632;51.718;19.446;2022-12-18T14:51:03;43.60;;;18.90;;
70970;SDS011;58632;51.718;19.446;2022-12-18T14:53:39;40.90;;;18.10;;
70970;SDS011;58632;51.718;19.446;2022-12-18T14:56:13;46.20;;;19.90;;
70970;SDS011;58632;51.718;19.446;2022-12-18T14:58:39;32.20;;;13.80;;
70970;SDS011;58632;51.718;19.446;2022-12-18T15:01:17;41.50;;;17.10;;
70970;SDS011;58632;51.718;19.446;2022-12-18T15:03:44;43.40;;;19.30;;
70970;SDS011;58632;51.718;19.446;2022-12-18T15:06:27;41.80;;;18.40;;
70970;SDS011;58632;51.718;19.446;2022-12-18T15:08:53;44.30;;;18.30;;
70970;SDS011;58632;51.718;19.446;2022-12-18T15:11:27;48.40;;;19.10;;
70970;SDS011;58632;51.718;19.446;2022-12-18T15:14:28;44.10;;;18.70;;
70970;SDS011;58632;51.718;19.446;2022-12-18T15:16:58;51.10;;;20.40;;
70970;SDS011;58632;51.718;19.446;2022-12-18T15:19:31;135.00;;;40.40;;
70970;SDS011;58632;51.718;19.446;2022-12-18T15:22:00;63.00;;;20.40;;
70970;SDS011;58632;51.718;19.446;2022-12-18T15:24:27;75.10;;;25.20;;
70970;SDS011;58632;51.718;19.446;2022-12-18T15:26:56;92.00;;;29.50;;
70970;SDS011;58632;51.718;19.446;2022-12-18T15:29:22;59.50;;;21.10;;
70970;SDS011;58632;51.718;19.446;2022-12-18T15:32:01;45.60;;;19.00;;
70970;SDS011;58632;51.718;19.446;2022-12-18T15:34:28;45.70;;;18.80;;
70970;SDS011;58632;51.718;19.446;2022-12-18T15:36:54;98.10;;;27.10;;
70970;SDS011;58632;51.718;19.446;2022-12-18T15:39:21;69.10;;;23.40;;
70970;SDS011;58632;51.718;19.446;2022-12-18T15:41:46;48.10;;;20.40;;
70970;SDS011;58632;51.718;19.446;2022-12-18T15:44:31;45.90;;;20.00;;
70970;SDS011;58632;51.718;19.446;2022-12-18T15:46:58;57.00;;;19.30;;
70970;SDS011;58632;51.718;19.446;2022-12-18T15:49:23;57.90;;;20.50;;
70970;SDS011;58632;51.718;19.446;2022-12-18T15:51:51;50.40;;;18.90;;
70970;SDS011;58632;51.718;19.446;2022-12-18T15:54:19;34.90;;;13.00;;
70970;SDS011;58632;51.718;19.446;2022-12-18T15:57:08;51.60;;;22.40;;
70970;SDS011;58632;51.718;19.446;2022-12-18T15:59:49;32.60;;;15.30;;
70970;SDS011;58632;51.718;19.446;2022-12-18T16:02:16;32.30;;;17.40;;
70970;SDS011;58632;51.718;19.446;2022-12-18T16:04:43;150.10;;;40.40;;
70970;SDS011;58632;51.718;19.446;2022-12-18T16:07:10;116.20;;;32.70;;
70970;SDS011;58632;51.718;19.446;2022-12-18T16:09:37;68.80;;;30.10;;
70970;SDS011;58632;51.718;19.446;2022-12-18T16:12:04;53.00;;;22.20;;
70970;SDS011;58632;51.718;19.446;2022-12-18T16:14:31;34.00;;;14.70;;
70970;SDS011;58632;51.718;19.446;2022-12-18T16:17:02;25.50;;;10.80;;
70970;SDS011;58632;51.718;19.446;2022-12-18T16:19:30;35.10;;;14.80;;
70970;SDS011;58632;51.718;19.446;2022-12-18T16:21:57;40.10;;;17.20;;
70970;SDS011;58632;51.718;19.446;2022-12-18T16:24:24;28.80;;;13.90;;
70970;SDS011;58632;51.718;19.446;2022-12-18T16:26:56;41.80;;;17.90;;